Terminal Aerodrome Forecast
Issued by NWS Grand Forks, ND

Home | Current Version | Previous Version | Text Only | Print | Product List | Glossary Off
Versions: 1 2 3 4 5 6 7 8 9 10 11 12 13 14 15

706
FTUS43 KFGF 210531
TAFGFK
TAF
KGFK 210531Z 2106/2206 14009KT P6SM OVC008
     FM210900 14008KT 5SM -DZ BR OVC008
     FM212100 08006KT 5SM -DZ BR OVC008=

USA.gov is the U.S. government's official web portal to all federal, state and local government web resources and services.